Time;durP1;ratioP1;P1;durP2;ratioP2;P2;SDS_P1;SDS_P2;PMS_P1;PMS_P2;Temp;Humidity;BMP_temperature;BMP_pressure;BME280_temperature;BME280_humidity;BME280_pressure;Samples;Min_cycle;Max_cycle;Signal;HPM_P1;HPM_P2
2023/12/30 00:00:15;;;;;;;1.97;1.50;;;8.90;84.30;;;;;;4973208;28;20589;-82
2023/12/30 00:02:48;;;;;;;2.10;1.77;;;8.90;84.20;;;;;;4964514;28;20238;-81
2023/12/30 00:05:17;;;;;;;1.00;0.97;;;8.90;84.10;;;;;;4967639;28;20564;-81
2023/12/30 00:07:46;;;;;;;3.80;1.53;;;8.90;83.90;;;;;;4966180;28;20212;-80
2023/12/30 00:10:15;;;;;;;1.77;1.67;;;8.90;83.90;;;;;;4970256;28;20576;-81
2023/12/30 00:12:44;;;;;;;18.73;3.60;;;8.90;83.80;;;;;;4969377;28;20209;-81
2023/12/30 00:15:13;;;;;;;3.77;2.47;;;8.90;83.70;;;;;;4967955;28;20628;-80
2023/12/30 00:17:42;;;;;;;5.47;2.23;;;8.90;83.70;;;;;;4970045;28;20212;-81
2023/12/30 00:20:11;;;;;;;1.60;1.50;;;8.90;83.70;;;;;;4964286;28;20206;-81
2023/12/30 00:22:41;;;;;;;1.73;1.63;;;8.90;83.70;;;;;;4969444;28;20297;-82
2023/12/30 00:25:11;;;;;;;5.13;2.00;;;8.90;84.50;;;;;;4974465;28;20258;-82
2023/12/30 00:27:40;;;;;;;4.10;2.47;;;8.80;83.50;;;;;;4978375;28;20228;-82
2023/12/30 00:30:12;;;;;;;3.53;2.53;;;8.80;83.50;;;;;;4978059;28;20220;-83
2023/12/30 00:32:41;;;;;;;2.83;2.20;;;8.70;83.80;;;;;;4969078;28;20571;-82
2023/12/30 00:35:14;;;;;;;2.77;2.37;;;8.70;84.30;;;;;;4974522;28;20312;-81
2023/12/30 00:37:47;;;;;;;2.20;2.00;;;8.70;84.30;;;;;;4974072;28;20289;-82
2023/12/30 00:40:16;;;;;;;0.90;0.90;;;8.60;84.30;;;;;;4971622;28;20210;-82
2023/12/30 00:42:53;;;;;;;2.80;2.03;;;8.70;84.50;;;;;;4971197;28;20205;-81
2023/12/30 00:45:24;;;;;;;2.30;1.77;;;8.70;84.50;;;;;;4970659;28;20641;-82
2023/12/30 00:47:53;;;;;;;1.30;1.20;;;8.60;84.50;;;;;;4971959;28;20198;-81
2023/12/30 00:50:21;;;;;;;8.33;1.63;;;8.60;84.60;;;;;;4970550;28;20674;-82
2023/12/30 00:52:51;;;;;;;1.30;1.20;;;8.60;84.80;;;;;;4969303;28;20753;-83
2023/12/30 00:55:20;;;;;;;2.03;1.87;;;8.60;85.10;;;;;;4970819;28;20311;-82
2023/12/30 00:57:48;;;;;;;1.67;1.57;;;8.60;85.10;;;;;;4977390;28;20664;-83
2023/12/30 01:00:18;;;;;;;1.60;1.50;;;8.60;85.20;;;;;;4974442;28;20207;-84
2023/12/30 01:02:46;;;;;;;1.03;1.03;;;8.50;85.60;;;;;;4971849;28;20624;-84
2023/12/30 01:05:15;;;;;;;1.27;1.17;;;8.50;85.50;;;;;;4974756;28;20262;-83
2023/12/30 01:07:47;;;;;;;1.50;1.40;;;8.50;85.80;;;;;;4977099;28;20206;-83
2023/12/30 01:10:18;;;;;;;2.27;2.00;;;8.40;86.10;;;;;;4977231;28;20186;-84
2023/12/30 01:12:49;;;;;;;4.88;2.20;;;8.50;86.40;;;;;;4976025;28;20434;-82
2023/12/30 01:15:18;;;;;;;2.27;1.40;;;8.40;86.90;;;;;;4966665;28;20244;-82
2023/12/30 01:17:47;;;;;;;0.80;0.80;;;8.40;87.00;;;;;;4976276;28;20202;-81
2023/12/30 01:20:16;;;;;;;1.93;1.73;;;8.30;86.90;;;;;;4967546;28;20624;-84
2023/12/30 01:22:45;;;;;;;1.47;1.37;;;8.40;86.90;;;;;;4972930;28;20232;-84
2023/12/30 01:25:18;;;;;;;5.53;1.90;;;8.30;86.70;;;;;;4972262;28;20202;-84
2023/12/30 01:27:49;;;;;;;2.97;1.93;;;8.30;86.60;;;;;;4973248;28;20206;-82
2023/12/30 01:30:18;;;;;;;1.53;1.27;;;8.30;86.50;;;;;;4974504;28;20491;-84
2023/12/30 01:32:47;;;;;;;4.80;1.90;;;8.30;86.30;;;;;;4970217;28;20209;-84
2023/12/30 01:35:16;;;;;;;4.43;0.93;;;8.30;86.20;;;;;;4970778;28;20767;-84
2023/12/30 01:37:44;;;;;;;2.27;1.43;;;8.40;86.10;;;;;;4972045;28;20208;-84
2023/12/30 01:40:14;;;;;;;1.20;1.10;;;8.40;86.00;;;;;;4970267;28;20209;-83
2023/12/30 01:42:44;;;;;;;1.93;1.73;;;8.40;85.80;;;;;;4971112;28;20206;-82
2023/12/30 01:45:13;;;;;;;1.70;1.20;;;8.40;85.80;;;;;;4971646;28;20209;-83
2023/12/30 01:47:42;;;;;;;3.20;1.73;;;8.40;85.90;;;;;;4970093;28;20216;-84
2023/12/30 01:50:13;;;;;;;1.87;1.60;;;8.40;85.90;;;;;;4969277;28;20527;-83
2023/12/30 01:52:43;;;;;;;0.83;0.83;;;8.40;85.80;;;;;;4970625;28;20556;-84
2023/12/30 01:55:13;;;;;;;2.13;2.00;;;8.40;85.70;;;;;;4969933;28;20245;-84
2023/12/30 01:57:44;;;;;;;2.77;2.13;;;8.40;85.50;;;;;;4976319;28;20460;-84
2023/12/30 02:00:19;;;;;;;0.80;0.80;;;8.40;85.40;;;;;;4972739;28;20240;-84
2023/12/30 02:02:49;;;;;;;1.47;1.37;;;8.40;85.30;;;;;;4971021;28;20245;-84
2023/12/30 02:05:18;;;;;;;1.80;1.70;;;8.40;85.20;;;;;;4973077;28;20216;-84
2023/12/30 02:07:48;;;;;;;4.13;2.50;;;8.50;85.20;;;;;;4977360;28;20234;-85
2023/12/30 02:10:16;;;;;;;1.17;1.13;;;8.50;85.20;;;;;;4974461;28;20568;-85
2023/12/30 02:12:47;;;;;;;1.70;1.27;;;8.50;85.10;;;;;;4978660;28;20207;-84
2023/12/30 02:15:17;;;;;;;1.83;1.73;;;8.60;85.10;;;;;;4985365;28;20705;-85
2023/12/30 02:17:47;;;;;;;0.83;0.83;;;8.50;85.00;;;;;;4971283;28;20192;-84
2023/12/30 02:20:16;;;;;;;1.20;1.10;;;8.50;84.80;;;;;;4974362;28;20200;-86
2023/12/30 02:22:50;;;;;;;1.10;1.00;;;8.60;84.80;;;;;;4975923;28;20225;-89
2023/12/30 02:25:19;;;;;;;0.90;0.83;;;8.60;84.70;;;;;;4975195;28;20206;-89
2023/12/30 02:27:48;;;;;;;1.27;1.13;;;8.60;84.60;;;;;;4973417;28;20298;-90
2023/12/30 02:30:16;;;;;;;0.60;0.60;;;8.60;84.50;;;;;;4970709;28;20234;-90
2023/12/30 02:32:45;;;;;;;1.77;1.50;;;8.60;84.40;;;;;;4977207;28;20288;-92
2023/12/30 02:35:14;;;;;;;0.70;0.63;;;8.60;84.40;;;;;;4973832;28;20709;-91
2023/12/30 02:37:44;;;;;;;2.83;1.73;;;8.60;84.20;;;;;;4981504;28;20249;-90
2023/12/30 02:40:15;;;;;;;0.87;0.87;;;8.60;84.10;;;;;;4977672;28;20201;-91
2023/12/30 02:42:44;;;;;;;1.70;1.60;;;8.60;83.90;;;;;;4978125;28;20256;-91
2023/12/30 02:45:14;;;;;;;1.03;1.03;;;8.60;83.80;;;;;;4977093;28;20208;-90
2023/12/30 02:47:42;;;;;;;1.80;1.10;;;8.50;83.80;;;;;;4979201;28;20293;-91
2023/12/30 02:50:12;;;;;;;1.00;1.00;;;8.50;83.70;;;;;;4982724;28;20197;-90
2023/12/30 02:52:40;;;;;;;0.63;0.63;;;8.50;83.60;;;;;;4978678;28;20276;-89
2023/12/30 02:55:10;;;;;;;0.83;0.83;;;8.50;83.50;;;;;;4983949;28;20232;-92
2023/12/30 02:57:40;;;;;;;1.03;0.87;;;8.50;83.30;;;;;;4971001;28;20257;-90
2023/12/30 03:00:18;;;;;;;0.47;0.47;;;8.40;83.30;;;;;;4981301;28;20202;-93
2023/12/30 03:02:48;;;;;;;1.60;1.40;;;8.40;83.40;;;;;;4971478;28;20198;-92
2023/12/30 03:05:17;;;;;;;1.70;1.60;;;8.40;83.40;;;;;;4981408;28;20289;-92
2023/12/30 03:07:46;;;;;;;1.30;1.23;;;8.40;83.50;;;;;;4981810;28;20206;-92
2023/12/30 03:10:15;;;;;;;0.67;0.67;;;8.40;83.40;;;;;;4975477;28;20245;-93
2023/12/30 03:12:45;;;;;;;0.90;0.90;;;8.40;83.40;;;;;;4968720;28;20261;-92
2023/12/30 03:15:14;;;;;;;1.52;1.30;;;8.40;83.50;;;;;;4981605;28;20959;-92
2023/12/30 03:17:43;;;;;;;1.30;1.20;;;8.40;83.30;;;;;;4980445;28;20197;-92
2023/12/30 03:20:13;;;;;;;4.67;1.23;;;8.40;83.50;;;;;;4976759;28;20237;-93
2023/12/30 03:22:41;;;;;;;1.00;0.90;;;8.40;83.40;;;;;;4979194;28;20216;-92
2023/12/30 03:25:11;;;;;;;3.90;2.00;;;8.40;83.40;;;;;;4977872;28;20230;-92
2023/12/30 03:27:39;;;;;;;2.10;1.70;;;8.30;83.30;;;;;;4976655;28;20856;-92
2023/12/30 03:30:11;;;;;;;3.40;1.07;;;8.30;83.60;;;;;;4972070;28;20194;-92
2023/12/30 03:32:39;;;;;;;0.53;0.53;;;8.30;83.60;;;;;;4977195;28;20264;-91
2023/12/30 03:35:09;;;;;;;3.40;1.87;;;8.30;83.90;;;;;;4975824;28;20261;-91
2023/12/30 03:37:37;;;;;;;0.90;0.90;;;8.30;84.00;;;;;;4971646;28;20198;-93
2023/12/30 03:40:07;;;;;;;1.43;1.33;;;8.30;83.90;;;;;;4974387;28;20564;-92
2023/12/30 03:42:36;;;;;;;1.77;0.87;;;8.30;84.10;;;;;;4978999;28;20316;-92
2023/12/30 03:45:05;;;;;;;1.50;1.30;;;8.30;84.30;;;;;;4979334;28;20569;-90
2023/12/30 03:47:38;;;;;;;1.13;1.03;;;8.30;84.30;;;;;;4977640;28;20181;-88
2023/12/30 03:50:09;;;;;;;2.03;1.83;;;8.30;84.50;;;;;;4977134;28;20206;-90
2023/12/30 03:52:38;;;;;;;0.90;0.90;;;8.30;84.70;;;;;;4972657;28;20331;-92
2023/12/30 03:55:07;;;;;;;3.47;2.23;;;8.20;84.90;;;;;;4975180;28;20229;-88
2023/12/30 03:57:36;;;;;;;2.27;1.83;;;8.20;84.90;;;;;;4973899;28;20209;-91
2023/12/30 04:00:07;;;;;;;1.80;1.67;;;8.10;84.90;;;;;;4979306;28;20205;-90
2023/12/30 04:02:37;;;;;;;1.00;1.00;;;8.10;84.90;;;;;;4980788;28;20524;-88
2023/12/30 04:05:07;;;;;;;1.77;1.67;;;8.10;85.10;;;;;;4980300;28;20206;-90
2023/12/30 04:07:36;;;;;;;3.77;2.07;;;8.10;85.20;;;;;;4982806;28;20205;-90
2023/12/30 04:10:06;;;;;;;2.77;2.37;;;8.00;85.30;;;;;;4978469;28;20242;-89
2023/12/30 04:12:36;;;;;;;1.77;1.67;;;8.00;85.50;;;;;;4977750;28;20189;-89
2023/12/30 04:15:07;;;;;;;0.90;0.90;;;8.00;85.60;;;;;;4979514;28;20567;-92
2023/12/30 04:17:37;;;;;;;0.93;0.83;;;7.90;85.70;;;;;;4975316;28;20186;-92
2023/12/30 04:20:07;;;;;;;1.10;1.10;;;7.90;85.60;;;;;;4981025;28;20202;-91
2023/12/30 04:22:36;;;;;;;0.77;0.77;;;7.90;85.80;;;;;;4981852;28;20217;-90
2023/12/30 04:25:06;;;;;;;4.33;2.90;;;7.90;85.80;;;;;;4979049;28;20232;-92
2023/12/30 04:27:34;;;;;;;3.50;0.83;;;7.80;86.10;;;;;;4978558;28;20267;-91
2023/12/30 04:30:03;;;;;;;1.10;1.00;;;7.80;86.30;;;;;;4976724;28;20233;-91
2023/12/30 04:32:32;;;;;;;3.90;1.83;;;7.80;86.20;;;;;;4977412;28;20798;-91
2023/12/30 04:35:03;;;;;;;1.65;1.55;;;7.80;86.30;;;;;;4977313;28;20205;-91
2023/12/30 04:37:31;;;;;;;1.50;1.40;;;7.80;86.30;;;;;;4977824;28;20686;-90
2023/12/30 04:40:00;;;;;;;1.77;1.67;;;7.80;86.20;;;;;;4974115;28;20224;-92
2023/12/30 04:42:29;;;;;;;1.30;1.20;;;7.80;86.30;;;;;;4977817;28;20177;-92
2023/12/30 04:44:57;;;;;;;1.53;1.43;;;7.70;86.20;;;;;;4983285;28;20225;-92
2023/12/30 04:47:26;;;;;;;1.03;1.03;;;7.80;86.20;;;;;;4976751;28;20196;-90
2023/12/30 04:49:55;;;;;;;0.50;0.50;;;7.70;86.00;;;;;;4982714;28;20798;-91
2023/12/30 04:52:25;;;;;;;0.90;0.90;;;7.80;86.10;;;;;;4978965;28;20661;-93
2023/12/30 04:54:54;;;;;;;1.20;1.13;;;7.80;85.90;;;;;;4983946;28;20296;-91
2023/12/30 04:57:22;;;;;;;1.57;1.47;;;7.80;85.90;;;;;;4983377;28;20272;-91
2023/12/30 04:59:51;;;;;;;3.13;2.20;;;7.80;85.90;;;;;;4979498;28;20233;-91
2023/12/30 05:02:19;;;;;;;1.47;1.37;;;7.80;86.00;;;;;;4982364;28;20197;-90
2023/12/30 05:04:48;;;;;;;1.27;1.17;;;7.80;86.00;;;;;;4980510;28;20209;-92
2023/12/30 05:07:17;;;;;;;1.33;1.23;;;7.80;86.10;;;;;;4984985;28;20665;-90
2023/12/30 05:09:50;;;;;;;1.63;1.37;;;7.80;86.10;;;;;;4974074;28;20205;-90
2023/12/30 05:12:18;;;;;;;2.20;1.97;;;7.80;86.20;;;;;;4976282;28;20299;-87
2023/12/30 05:14:47;;;;;;;2.07;1.50;;;7.80;86.20;;;;;;4975048;28;20209;-88
2023/12/30 05:17:16;;;;;;;1.60;1.50;;;7.80;86.40;;;;;;4975425;28;20239;-87
2023/12/30 05:19:51;;;;;;;7.10;2.10;;;7.70;86.50;;;;;;4974731;28;20217;-86
2023/12/30 05:22:23;;;;;;;6.13;1.30;;;7.60;86.60;;;;;;4978010;28;20208;-86
2023/12/30 05:24:54;;;;;;;2.53;1.90;;;7.60;86.60;;;;;;4973881;28;20210;-87
2023/12/30 05:27:23;;;;;;;1.63;1.53;;;7.60;86.60;;;;;;4979256;28;20198;-88
2023/12/30 05:29:52;;;;;;;2.17;2.03;;;7.60;86.80;;;;;;4968867;28;20704;-83
2023/12/30 05:32:21;;;;;;;2.10;1.90;;;7.60;86.80;;;;;;4969130;28;20210;-82
2023/12/30 05:34:50;;;;;;;4.73;2.00;;;7.60;87.10;;;;;;4970353;28;20197;-84
2023/12/30 05:37:19;;;;;;;1.93;1.80;;;7.60;87.20;;;;;;4973030;28;20217;-87
2023/12/30 05:39:48;;;;;;;3.10;1.73;;;7.60;87.30;;;;;;4978497;28;20205;-88
2023/12/30 05:42:28;;;;;;;0.63;0.63;;;7.60;87.50;;;;;;4970782;28;20215;-87
2023/12/30 05:44:59;;;;;;;2.63;1.83;;;7.60;87.50;;;;;;4966872;28;20292;-84
2023/12/30 05:47:28;;;;;;;3.33;1.50;;;7.60;87.80;;;;;;4964769;28;20617;-83
2023/12/30 05:49:59;;;;;;;3.57;1.90;;;7.60;88.00;;;;;;4973182;28;20208;-81
2023/12/30 05:52:29;;;;;;;1.73;1.63;;;7.60;87.70;;;;;;4970909;28;20206;-90
2023/12/30 05:55:01;;;;;;;1.80;1.70;;;7.60;87.70;;;;;;4977588;28;20211;-87
2023/12/30 05:57:31;;;;;;;2.53;2.23;;;7.60;87.60;;;;;;4978575;28;20226;-86
2023/12/30 06:00:04;;;;;;;0.90;0.90;;;7.60;87.50;;;;;;4970229;28;20200;-82
2023/12/30 06:02:32;;;;;;;1.70;1.23;;;7.60;87.50;;;;;;4971058;28;20208;-82
2023/12/30 06:05:01;;;;;;;2.10;1.47;;;7.60;87.30;;;;;;4969516;28;20209;-82
2023/12/30 06:07:30;;;;;;;1.90;1.57;;;7.60;87.50;;;;;;4975794;28;20247;-83
2023/12/30 06:09:59;;;;;;;2.67;2.43;;;7.60;87.40;;;;;;4967900;28;20658;-79
2023/12/30 06:12:28;;;;;;;1.67;1.57;;;7.70;87.50;;;;;;4969921;28;20201;-82
2023/12/30 06:14:58;;;;;;;2.43;1.80;;;7.70;87.40;;;;;;4968581;28;20195;-82
2023/12/30 06:17:26;;;;;;;2.13;2.03;;;7.70;87.40;;;;;;4973401;28;20363;-81
2023/12/30 06:19:55;;;;;;;2.23;1.83;;;7.70;87.20;;;;;;4981261;28;20591;-82
2023/12/30 06:22:24;;;;;;;2.37;2.17;;;7.70;87.20;;;;;;4973704;28;20213;-81
2023/12/30 06:24:53;;;;;;;4.40;3.00;;;7.70;88.10;;;;;;4970267;28;20304;-86
2023/12/30 06:27:23;;;;;;;2.20;1.87;;;7.70;87.30;;;;;;4972731;28;20208;-83
2023/12/30 06:29:51;;;;;;;1.47;1.37;;;7.70;87.20;;;;;;4970051;28;20206;-85
2023/12/30 06:32:22;;;;;;;2.53;1.37;;;7.70;87.20;;;;;;4969671;28;20209;-86
2023/12/30 06:34:50;;;;;;;1.70;1.60;;;7.70;87.20;;;;;;4969703;28;21021;-81
2023/12/30 06:37:19;;;;;;;4.40;2.27;;;7.70;87.50;;;;;;4970203;28;20224;-81
2023/12/30 06:39:48;;;;;;;1.23;1.03;;;7.70;87.70;;;;;;4971571;28;20206;-82
2023/12/30 06:42:16;;;;;;;1.90;1.40;;;7.70;87.50;;;;;;4977083;28;20208;-80
2023/12/30 06:44:47;;;;;;;1.27;1.07;;;7.70;87.50;;;;;;4969735;28;20189;-80
2023/12/30 06:47:16;;;;;;;2.57;2.33;;;7.70;87.50;;;;;;4968758;28;20296;-81
2023/12/30 06:49:48;;;;;;;3.50;1.63;;;7.70;87.60;;;;;;4969080;28;20198;-83
2023/12/30 06:52:23;;;;;;;1.33;1.23;;;7.80;87.60;;;;;;4971706;28;20196;-83
2023/12/30 06:54:53;;;;;;;1.83;1.70;;;7.80;87.50;;;;;;4965296;28;20209;-82
2023/12/30 06:57:37;;;;;;;0.80;0.80;;;7.80;87.60;;;;;;4970056;28;20308;-82
2023/12/30 07:00:08;;;;;;;2.63;2.43;;;7.90;87.70;;;;;;4969362;28;20245;-81
2023/12/30 07:02:37;;;;;;;4.73;1.37;;;7.90;87.70;;;;;;4975117;28;20214;-82
2023/12/30 07:05:11;;;;;;;2.77;2.23;;;7.90;88.60;;;;;;4965474;28;20276;-82
2023/12/30 07:07:39;;;;;;;1.50;1.40;;;7.80;87.80;;;;;;4970493;28;20228;-82
2023/12/30 07:10:08;;;;;;;7.07;2.40;;;7.90;87.80;;;;;;4968810;28;20232;-82
2023/12/30 07:12:38;;;;;;;4.43;1.83;;;7.90;87.90;;;;;;4974713;28;20240;-83
2023/12/30 07:15:07;;;;;;;4.63;2.67;;;7.90;88.00;;;;;;4966298;28;20204;-83
2023/12/30 07:17:36;;;;;;;2.53;2.33;;;7.90;88.00;;;;;;4968848;28;20245;-84
2023/12/30 07:20:07;;;;;;;2.83;2.57;;;7.90;88.00;;;;;;4968613;28;20670;-82
2023/12/30 07:22:37;;;;;;;1.90;1.77;;;7.90;88.00;;;;;;4972551;28;20732;-83
2023/12/30 07:25:07;;;;;;;2.27;1.67;;;7.90;88.00;;;;;;4963646;28;20197;-83
2023/12/30 07:27:36;;;;;;;2.20;1.83;;;7.90;88.10;;;;;;4971911;28;20202;-85
2023/12/30 07:30:09;;;;;;;3.23;2.07;;;7.90;88.00;;;;;;4972735;28;20708;-84
2023/12/30 07:32:38;;;;;;;4.37;1.63;;;8.00;88.10;;;;;;4971977;28;20772;-84
2023/12/30 07:35:08;;;;;;;1.67;1.57;;;8.00;88.20;;;;;;4967603;28;20665;-82
2023/12/30 07:37:39;;;;;;;2.37;1.27;;;8.00;88.20;;;;;;4976726;28;20651;-82
2023/12/30 07:40:09;;;;;;;1.70;1.60;;;8.00;88.20;;;;;;4966605;28;20208;-81
2023/12/30 07:42:37;;;;;;;5.07;2.47;;;8.10;88.10;;;;;;4981505;28;20556;-84
2023/12/30 07:45:07;;;;;;;2.40;2.20;;;8.10;88.10;;;;;;4972001;28;20206;-84
2023/12/30 07:47:36;;;;;;;9.03;2.40;;;8.20;88.00;;;;;;4975301;28;20202;-84
2023/12/30 07:50:06;;;;;;;3.08;2.65;;;8.20;88.00;;;;;;4975394;28;20959;-85
2023/12/30 07:52:38;;;;;;;5.40;2.93;;;8.20;88.00;;;;;;4968644;28;20222;-83
2023/12/30 07:55:09;;;;;;;3.50;2.70;;;8.30;87.90;;;;;;4968748;28;20210;-84
2023/12/30 07:57:38;;;;;;;1.70;1.47;;;8.30;87.70;;;;;;4968448;28;20283;-83
2023/12/30 08:00:08;;;;;;;2.50;2.30;;;8.30;87.60;;;;;;4970274;28;20256;-83
2023/12/30 08:02:37;;;;;;;1.17;1.17;;;8.30;87.60;;;;;;4974258;28;20280;-83
2023/12/30 08:05:06;;;;;;;2.93;2.57;;;8.30;87.50;;;;;;4972076;28;20201;-83
2023/12/30 08:07:35;;;;;;;3.03;2.73;;;8.40;87.60;;;;;;4976344;28;20234;-81
2023/12/30 08:10:04;;;;;;;7.27;3.23;;;8.40;87.60;;;;;;4973775;28;22223;-84
2023/12/30 08:12:36;;;;;;;1.10;1.10;;;8.50;87.50;;;;;;4972275;28;20186;-84
2023/12/30 08:15:07;;;;;;;1.60;1.50;;;8.50;87.50;;;;;;4976203;28;20205;-83
2023/12/30 08:17:36;;;;;;;1.93;1.83;;;8.60;87.40;;;;;;4971779;28;20230;-85
2023/12/30 08:20:07;;;;;;;2.67;2.27;;;8.60;87.50;;;;;;4975649;28;22001;-83
2023/12/30 08:22:36;;;;;;;2.47;2.27;;;8.70;87.60;;;;;;4981401;28;20201;-83
2023/12/30 08:25:06;;;;;;;4.53;2.77;;;8.80;87.60;;;;;;4981683;28;20495;-85
2023/12/30 08:27:38;;;;;;;4.20;2.87;;;8.90;87.50;;;;;;4975861;28;20213;-87
2023/12/30 08:30:08;;;;;;;3.93;2.87;;;9.00;87.00;;;;;;4963290;28;20289;-85
2023/12/30 08:32:36;;;;;;;5.70;2.97;;;9.10;86.50;;;;;;4976358;28;20202;-86
2023/12/30 08:35:07;;;;;;;6.33;3.20;;;9.10;86.60;;;;;;4970222;28;20833;-82
2023/12/30 08:37:36;;;;;;;2.83;2.63;;;9.20;86.60;;;;;;4967272;28;20222;-85
2023/12/30 08:40:08;;;;;;;9.83;2.70;;;9.30;86.50;;;;;;4975599;28;20210;-85
2023/12/30 08:42:38;;;;;;;1.77;1.63;;;9.30;86.20;;;;;;4976209;28;20206;-86
2023/12/30 08:45:09;;;;;;;5.23;3.27;;;9.50;86.10;;;;;;4976361;28;20198;-84
2023/12/30 08:47:37;;;;;;;7.57;4.63;;;9.50;85.70;;;;;;4978024;28;20503;-85
2023/12/30 08:50:08;;;;;;;5.10;2.63;;;9.60;85.60;;;;;;4974515;28;20467;-83
2023/12/30 08:52:36;;;;;;;16.27;5.63;;;9.50;85.40;;;;;;4977016;28;20226;-83
2023/12/30 08:55:10;;;;;;;3.93;2.90;;;9.60;84.60;;;;;;4971178;28;20732;-83
2023/12/30 08:57:43;;;;;;;3.00;2.37;;;9.60;84.80;;;;;;4972130;28;20213;-84
2023/12/30 09:00:14;;;;;;;6.97;3.47;;;9.70;84.90;;;;;;4969929;28;20213;-82
2023/12/30 09:02:47;;;;;;;2.80;2.17;;;9.70;85.10;;;;;;4975933;28;20204;-85
2023/12/30 09:05:17;;;;;;;3.30;2.53;;;9.80;84.60;;;;;;4975288;28;20209;-82
2023/12/30 09:07:48;;;;;;;6.27;3.33;;;9.90;84.70;;;;;;4983176;28;20264;-84
2023/12/30 09:10:17;;;;;;;3.70;2.07;;;10.00;84.70;;;;;;4971766;28;20265;-82
2023/12/30 09:12:47;;;;;;;1.53;1.43;;;10.10;84.80;;;;;;4983554;28;20212;-85
2023/12/30 09:15:16;;;;;;;3.23;2.97;;;10.20;84.60;;;;;;4969193;28;20226;-84
2023/12/30 09:17:44;;;;;;;3.03;2.20;;;10.30;84.50;;;;;;4978675;28;20202;-85
2023/12/30 09:20:13;;;;;;;2.37;1.93;;;10.40;84.40;;;;;;4977077;28;20198;-85
2023/12/30 09:22:42;;;;;;;8.73;5.10;;;10.50;84.10;;;;;;4970937;28;20224;-87
2023/12/30 09:25:11;;;;;;;8.30;1.97;;;10.70;83.70;;;;;;4973684;28;20229;-85
2023/12/30 09:27:39;;;;;;;4.10;2.30;;;10.80;83.40;;;;;;4970690;28;20297;-85
2023/12/30 09:30:11;;;;;;;3.93;3.60;;;10.90;82.20;;;;;;4969088;28;20212;-85
2023/12/30 09:32:39;;;;;;;4.27;1.97;;;11.00;82.10;;;;;;4973469;28;20201;-83
2023/12/30 09:35:09;;;;;;;3.80;3.47;;;11.10;82.20;;;;;;4970598;28;20248;-82
2023/12/30 09:37:43;;;;;;;4.93;3.13;;;11.20;81.70;;;;;;4968452;28;20194;-83
2023/12/30 09:40:15;;;;;;;2.40;2.20;;;11.30;80.50;;;;;;4967891;28;20229;-83
2023/12/30 09:42:46;;;;;;;13.07;4.00;;;11.40;81.00;;;;;;4975413;28;20269;-82
2023/12/30 09:45:16;;;;;;;9.27;4.27;;;11.40;81.10;;;;;;4969948;28;20211;-81
2023/12/30 09:47:46;;;;;;;5.77;3.73;;;11.50;80.20;;;;;;4973836;28;20219;-82
2023/12/30 09:50:15;;;;;;;4.20;3.80;;;11.60;79.60;;;;;;4969996;28;20205;-81
2023/12/30 09:52:44;;;;;;;4.60;2.73;;;11.60;78.90;;;;;;4975423;28;20206;-81
2023/12/30 09:55:13;;;;;;;7.27;5.77;;;11.70;77.90;;;;;;4973489;28;20194;-83
2023/12/30 09:57:42;;;;;;;10.23;3.63;;;11.70;78.20;;;;;;4975812;28;20229;-82
2023/12/30 10:00:16;;;;;;;5.67;3.23;;;11.80;78.50;;;;;;4974551;28;20617;-82
2023/12/30 10:02:46;;;;;;;3.97;2.80;;;11.80;77.60;;;;;;4968073;28;20228;-82
2023/12/30 10:05:18;;;;;;;6.97;3.57;;;11.90;77.60;;;;;;4968999;28;20214;-81
2023/12/30 10:07:47;;;;;;;10.83;4.93;;;11.90;78.20;;;;;;4967698;28;20202;-81
2023/12/30 10:10:35;;;;;;;12.10;3.53;;;11.90;77.30;;;;;;4966999;28;20603;-81
2023/12/30 10:13:04;;;;;;;4.23;3.83;;;11.80;77.20;;;;;;4964148;28;20716;-82
2023/12/30 10:15:42;;;;;;;3.30;2.47;;;11.80;77.10;;;;;;4969393;28;20209;-81
2023/12/30 10:18:12;;;;;;;3.97;3.40;;;11.90;77.20;;;;;;4970611;28;20316;-83
2023/12/30 10:20:42;;;;;;;4.73;3.30;;;12.00;77.30;;;;;;4968384;28;20194;-83
2023/12/30 10:23:12;;;;;;;1.63;1.50;;;12.00;76.70;;;;;;4970647;28;20194;-82
2023/12/30 10:25:41;;;;;;;7.03;2.87;;;12.00;77.00;;;;;;4976489;28;20216;-81
2023/12/30 10:28:10;;;;;;;8.00;4.10;;;12.10;77.30;;;;;;4966615;28;20280;-81
2023/12/30 10:30:40;;;;;;;3.43;2.63;;;12.10;77.50;;;;;;4971983;28;20201;-85
2023/12/30 10:33:10;;;;;;;3.37;2.00;;;12.20;77.60;;;;;;4973477;28;20673;-83
2023/12/30 10:35:40;;;;;;;3.47;3.03;;;12.30;77.80;;;;;;4968184;28;20455;-85
2023/12/30 10:38:09;;;;;;;2.23;2.03;;;12.40;78.80;;;;;;4972915;28;20202;-85
2023/12/30 10:40:38;;;;;;;2.90;2.23;;;12.40;78.00;;;;;;4974108;28;20217;-85
2023/12/30 10:43:08;;;;;;;7.87;3.63;;;12.50;77.60;;;;;;4973826;28;20264;-86
2023/12/30 10:45:38;;;;;;;3.33;2.90;;;12.50;77.00;;;;;;4970060;28;20213;-89
2023/12/30 10:48:09;;;;;;;5.60;3.27;;;12.60;77.10;;;;;;4970622;28;20209;-85
2023/12/30 10:50:39;;;;;;;5.50;3.57;;;12.50;76.20;;;;;;4973086;28;20257;-84
2023/12/30 10:53:16;;;;;;;5.30;4.13;;;12.50;75.80;;;;;;4965827;28;20217;-86
2023/12/30 10:56:05;;;;;;;3.10;2.63;;;12.60;76.00;;;;;;4967327;28;20305;-83
2023/12/30 10:58:35;;;;;;;3.70;2.90;;;12.70;76.30;;;;;;4973965;28;20463;-83
2023/12/30 11:01:05;;;;;;;6.53;3.63;;;12.70;76.20;;;;;;4970320;28;20263;-88
2023/12/30 11:03:37;;;;;;;25.50;4.07;;;12.80;76.30;;;;;;4972816;28;20206;-90
2023/12/30 11:06:13;;;;;;;2.27;2.00;;;12.80;76.20;;;;;;4972602;28;20321;-88
2023/12/30 11:08:50;;;;;;;3.87;2.77;;;12.90;76.30;;;;;;4978648;28;20201;-82
2023/12/30 11:11:23;;;;;;;3.30;3.00;;;13.00;76.00;;;;;;4965202;28;20202;-81
2023/12/30 11:13:58;;;;;;;2.57;2.27;;;13.10;75.80;;;;;;4975102;28;20202;-81
2023/12/30 11:16:33;;;;;;;7.00;2.70;;;13.10;75.50;;;;;;4971727;28;20284;-82
2023/12/30 11:19:04;;;;;;;5.53;3.27;;;13.20;75.40;;;;;;4971849;28;20280;-88
2023/12/30 11:21:42;;;;;;;2.93;2.50;;;13.30;75.00;;;;;;4977296;28;20188;-89
2023/12/30 11:24:12;;;;;;;2.20;2.00;;;13.30;74.60;;;;;;4972728;28;20205;-88
2023/12/30 11:26:43;;;;;;;3.17;2.87;;;13.40;74.40;;;;;;4977038;28;20201;-86
2023/12/30 11:29:17;;;;;;;2.23;2.03;;;13.40;73.60;;;;;;4976009;28;20236;-87
2023/12/30 11:31:47;;;;;;;4.57;3.43;;;13.50;74.10;;;;;;4971533;28;20204;-83
2023/12/30 11:34:20;;;;;;;4.40;2.60;;;13.60;74.50;;;;;;4968744;28;20231;-81
2023/12/30 11:36:50;;;;;;;5.67;2.50;;;13.70;74.30;;;;;;4970594;28;20289;-83
2023/12/30 11:39:25;;;;;;;9.03;4.23;;;13.70;74.40;;;;;;4962793;28;20309;-81
2023/12/30 11:41:54;;;;;;;5.20;3.50;;;13.70;72.70;;;;;;4966053;28;20205;-81
2023/12/30 11:44:23;;;;;;;2.70;2.43;;;13.80;73.10;;;;;;4965308;28;20233;-82
2023/12/30 11:46:52;;;;;;;2.37;2.17;;;13.90;72.90;;;;;;4962349;28;20210;-82
2023/12/30 11:49:23;;;;;;;4.00;3.17;;;13.90;72.40;;;;;;4974290;28;20290;-87
2023/12/30 11:52:01;;;;;;;7.67;4.60;;;13.90;72.20;;;;;;4975753;28;20232;-91
2023/12/30 11:54:32;;;;;;;6.60;3.43;;;14.00;71.90;;;;;;4974991;28;20310;-87
2023/12/30 11:57:00;;;;;;;7.43;3.53;;;14.00;71.30;;;;;;4975902;28;20205;-90
2023/12/30 11:59:30;;;;;;;5.37;2.60;;;14.00;71.30;;;;;;4976503;28;20273;-91
2023/12/30 12:02:08;;;;;;;7.10;4.27;;;14.10;71.40;;;;;;4977192;28;20205;-91
2023/12/30 12:04:38;;;;;;;6.63;2.90;;;14.10;70.60;;;;;;4974516;28;20193;-91
2023/12/30 12:07:07;;;;;;;5.07;1.90;;;14.10;70.70;;;;;;4976424;28;20217;-88
2023/12/30 12:09:37;;;;;;;8.67;5.37;;;14.10;69.80;;;;;;4978408;28;20253;-89
2023/12/30 12:12:07;;;;;;;2.20;2.00;;;14.10;69.90;;;;;;4974879;28;20209;-88
2023/12/30 12:14:36;;;;;;;2.90;2.67;;;14.20;70.50;;;;;;4970290;28;20204;-88
2023/12/30 12:17:06;;;;;;;4.30;2.77;;;14.20;70.50;;;;;;4972885;28;20915;-89
2023/12/30 12:19:40;;;;;;;3.20;2.70;;;14.20;69.40;;;;;;4979164;28;20287;-89
2023/12/30 12:22:09;;;;;;;4.43;2.93;;;14.20;69.00;;;;;;4969226;28;20256;-87
2023/12/30 12:24:38;;;;;;;3.63;2.53;;;14.20;68.50;;;;;;4977637;28;20198;-83
2023/12/30 12:27:07;;;;;;;3.30;2.57;;;14.20;68.50;;;;;;4971736;28;20641;-85
2023/12/30 12:29:46;;;;;;;1.97;1.87;;;14.30;69.10;;;;;;4971202;28;20198;-83
2023/12/30 12:32:15;;;;;;;2.60;2.40;;;14.30;68.90;;;;;;4973678;28;20197;-84
2023/12/30 12:34:45;;;;;;;3.53;3.00;;;14.30;68.80;;;;;;4970381;28;20238;-84
2023/12/30 12:37:15;;;;;;;1.47;1.37;;;14.40;68.90;;;;;;4973954;28;20297;-84
2023/12/30 12:39:44;;;;;;;3.87;1.30;;;14.40;68.70;;;;;;4970846;28;20831;-83
2023/12/30 12:42:13;;;;;;;2.70;1.67;;;14.40;68.10;;;;;;4974473;28;20211;-84
2023/12/30 12:44:57;;;;;;;2.67;2.20;;;14.40;67.60;;;;;;4969450;28;20224;-81
2023/12/30 12:47:26;;;;;;;3.63;2.43;;;14.40;67.70;;;;;;4972508;28;20210;-83
2023/12/30 12:49:56;;;;;;;3.17;2.57;;;14.50;68.10;;;;;;4972684;28;20197;-81
2023/12/30 12:52:25;;;;;;;12.90;2.43;;;14.50;68.20;;;;;;4974953;28;20197;-82
2023/12/30 12:54:53;;;;;;;3.10;1.47;;;14.60;68.40;;;;;;4972110;28;20565;-82
2023/12/30 12:57:23;;;;;;;1.87;1.40;;;14.70;68.80;;;;;;4967919;28;20208;-83
2023/12/30 12:59:52;;;;;;;3.30;2.57;;;14.80;68.80;;;;;;4969861;28;20241;-83
2023/12/30 13:02:23;;;;;;;2.10;1.90;;;14.80;68.80;;;;;;4972723;28;20233;-82
2023/12/30 13:04:51;;;;;;;5.10;2.30;;;15.00;69.10;;;;;;4969694;28;20201;-82
2023/12/30 13:07:22;;;;;;;17.23;1.90;;;15.00;69.20;;;;;;4973169;28;20220;-80